createdAt,value
2022-08-24T00:01:59.838Z,19.70
2022-08-24T00:04:26.491Z,19.70
2022-08-24T00:06:54.797Z,19.69
2022-08-24T00:09:21.305Z,19.64
2022-08-24T00:11:47.903Z,19.60
2022-08-24T00:14:14.984Z,19.58
2022-08-24T00:16:42.008Z,19.55
2022-08-24T00:19:08.787Z,19.52
2022-08-24T00:21:35.375Z,19.48
2022-08-24T00:24:03.195Z,19.46
2022-08-24T00:26:29.823Z,19.43
2022-08-24T00:28:57.631Z,19.41
2022-08-24T00:31:24.969Z,19.39
2022-08-24T00:33:51.517Z,19.35
2022-08-24T00:36:18.106Z,19.33
2022-08-24T00:38:44.619Z,19.29
2022-08-24T00:41:11.219Z,19.24
2022-08-24T00:43:39.104Z,19.19
2022-08-24T00:46:19.675Z,19.16
2022-08-24T00:48:49.533Z,19.16
2022-08-24T00:51:25.955Z,19.13
2022-08-24T00:53:57.561Z,19.11
2022-08-24T00:56:32.631Z,19.10
2022-08-24T00:59:05.642Z,19.07
2022-08-24T01:01:34.039Z,19.05
2022-08-24T01:04:01.081Z,19.02
2022-08-24T01:06:27.879Z,18.96
2022-08-24T01:08:56.825Z,18.93
2022-08-24T01:11:26.337Z,18.91
2022-08-24T01:13:54.190Z,18.90
2022-08-24T01:16:42.070Z,18.85
2022-08-24T01:19:39.568Z,18.82
2022-08-24T01:22:20.837Z,18.80
2022-08-24T01:24:47.770Z,18.80
2022-08-24T01:27:15.406Z,18.75
2022-08-24T01:29:45.840Z,18.74
2022-08-24T01:32:14.178Z,18.72
2022-08-24T01:34:40.770Z,18.70
2022-08-24T01:37:10.757Z,18.67
2022-08-24T01:42:22.020Z,18.61
2022-08-24T01:44:48.520Z,18.57
2022-08-24T01:47:16.764Z,18.56
2022-08-24T01:49:47.283Z,18.54
2022-08-24T01:52:17.606Z,18.50
2022-08-24T01:54:44.750Z,18.47
2022-08-24T01:57:16.106Z,18.46
2022-08-24T01:59:43.986Z,18.43
2022-08-24T02:02:17.945Z,18.41
2022-08-24T02:04:44.485Z,18.41
2022-08-24T02:07:11.361Z,18.39
2022-08-24T02:09:38.797Z,18.34
2022-08-24T02:12:06.617Z,18.30
2022-08-24T02:14:34.160Z,18.28
2022-08-24T02:17:01.119Z,18.27
2022-08-24T02:19:27.705Z,18.23
2022-08-24T02:21:54.235Z,18.21
2022-08-24T02:24:20.897Z,18.20
2022-08-24T02:26:47.805Z,18.19
2022-08-24T02:29:14.289Z,18.14
2022-08-24T02:31:41.064Z,18.10
2022-08-24T02:34:07.612Z,18.11
2022-08-24T02:36:34.119Z,18.08
2022-08-24T02:39:00.665Z,18.04
2022-08-24T02:41:27.474Z,18.00
2022-08-24T02:43:56.006Z,17.98
2022-08-24T02:46:27.178Z,17.99
2022-08-24T02:49:10.082Z,17.99
2022-08-24T02:51:44.752Z,17.96
2022-08-24T02:54:13.259Z,17.93
2022-08-24T02:56:39.783Z,17.92
2022-08-24T02:59:06.566Z,17.90
2022-08-24T03:01:33.266Z,17.88
2022-08-24T03:03:59.921Z,17.85
2022-08-24T03:06:26.540Z,17.85
2022-08-24T03:08:56.362Z,17.80
2022-08-24T03:11:27.634Z,17.80
2022-08-24T03:13:56.551Z,17.80
2022-08-24T03:16:23.091Z,17.78
2022-08-24T03:18:49.715Z,17.74
2022-08-24T03:21:17.333Z,17.75
2022-08-24T03:23:43.975Z,17.72
2022-08-24T03:26:12.340Z,17.69
2022-08-24T03:28:39.266Z,17.68
2022-08-24T03:31:06.499Z,17.68
2022-08-24T03:33:33.759Z,17.66
2022-08-24T03:36:00.456Z,17.64
2022-08-24T03:38:27.136Z,17.63
2022-08-24T03:40:53.758Z,17.63
2022-08-24T03:43:38.844Z,17.61
2022-08-24T03:46:07.644Z,17.60
2022-08-24T03:48:35.039Z,17.57
2022-08-24T03:51:01.909Z,17.55
2022-08-24T03:53:28.492Z,17.53
2022-08-24T03:55:54.981Z,17.50
2022-08-24T03:58:21.511Z,17.48
2022-08-24T04:00:48.121Z,17.47
2022-08-24T04:03:14.971Z,17.47
2022-08-24T04:05:42.521Z,17.45
2022-08-24T04:08:10.388Z,17.42
2022-08-24T04:10:38.199Z,17.42
2022-08-24T04:13:04.925Z,17.42
2022-08-24T04:15:32.138Z,17.39
2022-08-24T04:17:58.725Z,17.39
2022-08-24T04:20:25.861Z,17.35
2022-08-24T04:22:53.555Z,17.34
2022-08-24T04:25:24.638Z,17.34
2022-08-24T04:27:52.184Z,17.33
2022-08-24T04:30:18.809Z,17.32
2022-08-24T04:32:45.366Z,17.30
2022-08-24T04:35:12.575Z,17.29
2022-08-24T04:37:39.050Z,17.30
2022-08-24T04:40:08.116Z,17.28
2022-08-24T04:42:35.547Z,17.26
2022-08-24T04:45:04.290Z,17.27
2022-08-24T04:47:30.761Z,17.25
2022-08-24T04:49:57.225Z,17.23
2022-08-24T04:52:24.206Z,17.23
2022-08-24T04:54:50.727Z,17.25
2022-08-24T04:57:18.388Z,17.25
2022-08-24T04:59:45.572Z,17.25
2022-08-24T05:02:12.622Z,17.25
2022-08-24T05:04:39.262Z,17.26
2022-08-24T05:07:05.991Z,17.26
2022-08-24T05:09:32.533Z,17.26
2022-08-24T05:11:59.056Z,17.29
2022-08-24T05:14:28.944Z,17.29
2022-08-24T05:16:56.067Z,17.31
2022-08-24T05:19:23.579Z,17.35
2022-08-24T05:21:50.691Z,17.34
2022-08-24T05:24:17.339Z,17.39
2022-08-24T05:26:43.802Z,17.40
2022-08-24T05:29:10.825Z,17.45
2022-08-24T05:31:38.013Z,17.47
2022-08-24T05:34:04.899Z,17.52
2022-08-24T05:36:34.084Z,17.55
2022-08-24T05:39:08.137Z,17.61
2022-08-24T05:41:38.592Z,17.71
2022-08-24T05:44:12.044Z,17.80
2022-08-24T05:46:38.544Z,17.92
2022-08-24T05:49:05.350Z,18.23
2022-08-24T05:51:32.080Z,18.77
2022-08-24T05:53:59.346Z,19.12
2022-08-24T05:56:31.293Z,19.11
2022-08-24T05:58:58.446Z,18.90
2022-08-24T06:01:27.112Z,18.74
2022-08-24T06:03:55.804Z,18.66
2022-08-24T06:06:23.652Z,18.63
2022-08-24T06:08:55.100Z,18.65
2022-08-24T06:11:30.898Z,18.67
2022-08-24T06:14:01.191Z,18.76
2022-08-24T06:16:27.853Z,18.88
2022-08-24T06:18:54.918Z,18.97
2022-08-24T06:21:28.144Z,19.06
2022-08-24T06:23:55.211Z,19.19
2022-08-24T06:26:40.466Z,19.32
2022-08-24T06:29:08.302Z,19.44
2022-08-24T06:31:41.992Z,19.57
2022-08-24T06:34:10.847Z,19.71
2022-08-24T06:36:37.570Z,19.85
2022-08-24T06:39:07.871Z,19.98
2022-08-24T06:41:37.714Z,20.11
2022-08-24T06:44:04.515Z,20.25
2022-08-24T06:46:32.943Z,20.39
2022-08-24T06:48:59.737Z,20.50
2022-08-24T06:51:26.205Z,20.64
2022-08-24T06:53:56.258Z,20.78
2022-08-24T06:56:23.470Z,20.94
2022-08-24T06:58:50.611Z,21.10
2022-08-24T07:01:20.016Z,21.19
2022-08-24T07:03:46.667Z,21.33
2022-08-24T07:06:14.365Z,21.49
2022-08-24T07:08:42.580Z,21.63
2022-08-24T07:11:10.777Z,21.77
2022-08-24T07:13:37.353Z,21.90
2022-08-24T07:16:04.756Z,22.05
2022-08-24T07:18:31.351Z,22.20
2022-08-24T07:21:01.228Z,22.36
2022-08-24T07:23:41.506Z,22.50
2022-08-24T07:26:15.118Z,22.68
2022-08-24T07:28:47.628Z,22.80
2022-08-24T07:31:14.473Z,22.94
2022-08-24T07:33:41.826Z,23.02
2022-08-24T07:36:08.310Z,23.12
2022-08-24T07:38:35.203Z,23.29
2022-08-24T07:41:33.315Z,23.48
2022-08-24T07:43:48.703Z,23.73
2022-08-24T07:46:15.186Z,23.94
2022-08-24T07:48:41.678Z,24.16
2022-08-24T07:51:14.619Z,24.31
2022-08-24T07:53:53.537Z,24.48
2022-08-24T07:56:20.765Z,24.62
2022-08-24T07:58:48.203Z,24.75
2022-08-24T08:01:15.248Z,24.90
2022-08-24T08:03:41.766Z,24.96
2022-08-24T08:06:16.221Z,25.14
2022-08-24T08:08:43.453Z,25.31
2022-08-24T08:11:11.176Z,25.39
2022-08-24T08:16:10.589Z,25.83
2022-08-24T08:18:37.190Z,26.01
2022-08-24T08:21:05.487Z,26.06
2022-08-24T08:23:50.710Z,26.22
2022-08-24T08:26:20.457Z,26.42
2022-08-24T08:28:47.333Z,26.57
2022-08-24T08:31:13.924Z,26.68
2022-08-24T08:33:40.479Z,26.85
2022-08-24T08:36:10.372Z,27.02
2022-08-24T08:38:39.375Z,27.05
2022-08-24T08:41:53.346Z,27.12
2022-08-24T08:44:38.037Z,27.34
2022-08-24T08:47:22.503Z,27.47
2022-08-24T08:50:13.049Z,27.53
2022-08-24T08:53:07.527Z,27.76
2022-08-24T08:55:59.268Z,27.91
2022-08-24T08:58:59.268Z,27.95
2022-08-24T09:01:50.549Z,28.13
2022-08-24T09:04:44.687Z,28.14
2022-08-24T09:07:31.879Z,28.27
2022-08-24T09:10:04.054Z,28.42
2022-08-24T09:12:39.476Z,28.40
2022-08-24T09:15:23.929Z,28.54
2022-08-24T09:17:50.376Z,28.62
2022-08-24T09:20:27.225Z,28.71
2022-08-24T09:23:10.314Z,28.86
2022-08-24T09:25:50.124Z,28.82
2022-08-24T09:28:36.513Z,28.90
2022-08-24T09:31:09.092Z,29.01
2022-08-24T09:33:39.658Z,29.05
2022-08-24T09:36:18.745Z,29.22
2022-08-24T09:39:08.505Z,29.54
2022-08-24T09:42:09.581Z,29.57
2022-08-24T09:44:55.401Z,29.80
2022-08-24T09:47:21.958Z,29.93
2022-08-24T09:50:15.873Z,29.94
2022-08-24T09:52:55.178Z,30.03
2022-08-24T09:55:52.099Z,30.12
2022-08-24T09:58:50.437Z,30.25
2022-08-24T10:01:35.725Z,30.24
2022-08-24T10:04:08.567Z,30.29
2022-08-24T10:06:53.708Z,30.42
2022-08-24T10:09:55.081Z,30.62
2022-08-24T10:12:56.157Z,30.79
2022-08-24T10:15:25.951Z,30.83
2022-08-24T10:18:20.918Z,30.90
2022-08-24T10:21:15.470Z,31.02
2022-08-24T10:24:02.013Z,30.92
2022-08-24T10:27:06.349Z,30.93
2022-08-24T10:29:49.811Z,31.02
2022-08-24T10:32:19.224Z,31.27
2022-08-24T10:34:57.838Z,31.33
2022-08-24T10:37:48.452Z,31.43
2022-08-24T10:40:54.405Z,31.61
2022-08-24T10:43:51.384Z,31.70
2022-08-24T10:46:23.819Z,31.71
2022-08-24T10:49:20.485Z,31.71
2022-08-24T10:52:11.190Z,31.80
2022-08-24T10:54:38.358Z,31.93
2022-08-24T10:57:11.596Z,32.04
2022-08-24T10:59:59.411Z,31.99
2022-08-24T11:02:35.231Z,31.98
2022-08-24T11:05:08.861Z,32.19
2022-08-24T11:07:37.152Z,32.41
2022-08-24T11:10:10.022Z,32.58
2022-08-24T11:12:42.816Z,32.66
2022-08-24T11:15:18.166Z,32.68
2022-08-24T11:18:00.363Z,32.85
2022-08-24T11:20:28.618Z,32.88
2022-08-24T11:23:14.906Z,32.81
2022-08-24T11:25:57.320Z,32.86
2022-08-24T11:28:38.086Z,33.03
2022-08-24T11:31:08.970Z,33.10
2022-08-24T11:33:49.491Z,33.00
2022-08-24T11:36:23.602Z,32.98
2022-08-24T11:39:16.835Z,33.01
2022-08-24T11:42:15.144Z,33.18
2022-08-24T11:44:49.856Z,33.27
2022-08-24T11:47:36.603Z,33.38
2022-08-24T11:50:09.081Z,33.42
2022-08-24T11:52:57.768Z,33.29
2022-08-24T11:55:47.309Z,33.41
2022-08-24T11:58:23.507Z,33.38
2022-08-24T12:01:05.036Z,33.37
2022-08-24T12:03:45.914Z,33.35
2022-08-24T12:06:41.509Z,33.57
2022-08-24T12:09:19.643Z,33.51
2022-08-24T12:12:04.011Z,33.49
2022-08-24T12:14:48.343Z,33.60
2022-08-24T12:17:26.927Z,33.69
2022-08-24T12:19:59.518Z,33.82
2022-08-24T12:22:28.437Z,33.87
2022-08-24T12:25:02.983Z,33.62
2022-08-24T12:27:35.338Z,33.16
2022-08-24T12:30:19.884Z,32.76
2022-08-24T12:33:00.747Z,32.50
2022-08-24T12:35:36.777Z,32.11
2022-08-24T12:38:12.904Z,31.83
2022-08-24T12:40:53.416Z,31.56
2022-08-24T12:43:25.324Z,31.25
2022-08-24T12:45:55.815Z,31.16
2022-08-24T12:48:34.813Z,31.14
2022-08-24T12:51:10.086Z,31.16
2022-08-24T12:54:01.765Z,31.08
2022-08-24T12:56:56.092Z,31.29
2022-08-24T12:59:27.663Z,31.60
2022-08-24T13:02:18.923Z,31.93
2022-08-24T13:04:48.515Z,32.29
2022-08-24T13:07:24.024Z,32.71
2022-08-24T13:09:53.467Z,33.01
2022-08-24T13:12:38.476Z,33.23
2022-08-24T13:15:26.272Z,33.41
2022-08-24T13:18:14.977Z,33.41
2022-08-24T13:20:41.386Z,33.47
2022-08-24T13:23:21.517Z,33.60
2022-08-24T13:25:48.037Z,33.39
2022-08-24T13:28:20.672Z,33.28
2022-08-24T13:31:27.426Z,33.20
2022-08-24T13:34:05.863Z,33.01
2022-08-24T13:36:50.023Z,32.98
2022-08-24T13:39:38.249Z,32.98
2022-08-24T13:42:05.037Z,33.03
2022-08-24T13:44:59.805Z,33.16
2022-08-24T13:47:50.954Z,33.18
2022-08-24T13:50:45.571Z,33.06
2022-08-24T13:53:32.767Z,32.98
2022-08-24T13:56:32.451Z,32.86
2022-08-24T13:59:02.552Z,33.05
2022-08-24T14:01:33.943Z,33.02
2022-08-24T14:04:24.674Z,32.89
2022-08-24T14:07:00.796Z,32.66
2022-08-24T14:09:40.884Z,32.54
2022-08-24T14:12:21.837Z,32.92
2022-08-24T14:15:11.657Z,33.16
2022-08-24T14:17:55.668Z,33.04
2022-08-24T14:20:59.374Z,32.89
2022-08-24T14:23:56.531Z,32.68
2022-08-24T14:26:38.658Z,32.37
2022-08-24T14:29:17.771Z,32.28
2022-08-24T14:31:58.584Z,32.57
2022-08-24T14:34:35.566Z,32.62
2022-08-24T14:37:18.496Z,32.79
2022-08-24T14:39:58.559Z,33.07
2022-08-24T14:43:11.105Z,33.19
2022-08-24T14:46:03.352Z,33.10
2022-08-24T14:48:51.252Z,32.87
2022-08-24T14:51:43.561Z,32.49
2022-08-24T14:54:28.761Z,32.45
2022-08-24T14:57:20.319Z,32.60
2022-08-24T15:00:13.655Z,32.56
2022-08-24T15:02:55.078Z,32.70
2022-08-24T15:05:45.945Z,32.72
2022-08-24T15:08:33.117Z,32.67
2022-08-24T15:11:08.691Z,32.68
2022-08-24T15:14:07.420Z,32.72
2022-08-24T15:16:39.921Z,32.74
2022-08-24T15:19:34.303Z,32.66
2022-08-24T15:22:24.041Z,32.50
2022-08-24T15:24:57.093Z,32.34
2022-08-24T15:27:43.446Z,32.35
2022-08-24T15:30:25.874Z,32.35
2022-08-24T15:33:07.440Z,32.26
2022-08-24T15:35:37.523Z,32.01
2022-08-24T15:38:21.994Z,31.94
2022-08-24T15:40:52.860Z,31.82
2022-08-24T15:43:19.872Z,31.63
2022-08-24T15:45:51.304Z,31.48
2022-08-24T15:48:24.547Z,31.34
2022-08-24T15:50:52.828Z,31.33
2022-08-24T15:53:40.503Z,31.35
2022-08-24T15:56:35.935Z,31.39
2022-08-24T15:59:12.386Z,31.30
2022-08-24T16:01:57.931Z,31.09
2022-08-24T16:04:40.943Z,31.01
2022-08-24T16:07:07.602Z,30.87
2022-08-24T16:09:37.742Z,30.73
2022-08-24T16:12:22.805Z,30.65
2022-08-24T16:14:55.111Z,30.61
2022-08-24T16:17:30.594Z,30.54
2022-08-24T16:20:00.614Z,30.49
2022-08-24T16:23:00.493Z,30.38
2022-08-24T16:25:43.702Z,30.30
2022-08-24T16:28:22.650Z,30.32
2022-08-24T16:31:00.815Z,30.20
2022-08-24T16:33:39.190Z,29.96
2022-08-24T16:36:15.978Z,29.73
2022-08-24T16:38:47.494Z,29.64
2022-08-24T16:41:18.535Z,29.53
2022-08-24T16:43:46.159Z,29.48
2022-08-24T16:46:13.890Z,29.48
2022-08-24T16:48:40.581Z,29.42
2022-08-24T16:51:07.269Z,29.32
2022-08-24T16:53:33.727Z,29.20
2022-08-24T16:56:00.287Z,29.14
2022-08-24T16:58:32.763Z,29.11
2022-08-24T17:00:59.987Z,29.02
2022-08-24T17:03:27.036Z,28.92
2022-08-24T17:05:55.851Z,28.85
2022-08-24T17:08:22.361Z,28.79
2022-08-24T17:10:48.823Z,28.70
2022-08-24T17:13:27.914Z,28.61
2022-08-24T17:16:03.691Z,28.55
2022-08-24T17:18:30.411Z,28.47
2022-08-24T17:20:58.312Z,28.39
2022-08-24T17:23:24.819Z,28.29
2022-08-24T17:25:51.539Z,28.25
2022-08-24T17:28:20.578Z,28.16
2022-08-24T17:30:51.371Z,28.16
2022-08-24T17:33:18.707Z,28.11
2022-08-24T17:35:45.362Z,28.05
2022-08-24T17:38:11.885Z,27.94
2022-08-24T17:40:38.434Z,27.85
2022-08-24T17:43:05.648Z,27.81
2022-08-24T17:45:32.272Z,27.75
2022-08-24T17:47:58.932Z,27.64
2022-08-24T17:50:26.649Z,27.57
2022-08-24T17:52:56.339Z,27.53
2022-08-24T17:55:27.284Z,27.45
2022-08-24T17:57:53.982Z,27.38
2022-08-24T18:00:20.581Z,27.32
2022-08-24T18:02:47.116Z,27.25
2022-08-24T18:05:14.876Z,27.16
2022-08-24T18:07:53.638Z,27.09
2022-08-24T18:10:27.932Z,27.04
2022-08-24T18:12:55.270Z,27.01
2022-08-24T18:15:21.971Z,26.95
2022-08-24T18:18:02.761Z,26.89
2022-08-24T18:20:34.951Z,26.85
2022-08-24T18:23:01.508Z,26.77
2022-08-24T18:25:29.949Z,26.72
2022-08-24T18:27:58.500Z,26.68
2022-08-24T18:30:30.388Z,26.64
2022-08-24T18:32:58.066Z,26.53
2022-08-24T18:35:24.603Z,26.48
2022-08-24T18:37:51.657Z,26.41
2022-08-24T18:40:21.347Z,26.38
2022-08-24T18:42:48.848Z,26.30
2022-08-24T18:45:15.521Z,26.19
2022-08-24T18:47:42.344Z,26.14
2022-08-24T18:50:09.557Z,26.10
2022-08-24T18:52:40.586Z,26.03
2022-08-24T18:55:09.785Z,25.97
2022-08-24T18:57:36.382Z,25.88
2022-08-24T19:00:05.479Z,25.83
2022-08-24T19:02:33.181Z,25.73
2022-08-24T19:05:11.131Z,25.66
2022-08-24T19:07:41.681Z,25.62
2022-08-24T19:10:10.817Z,25.57
2022-08-24T19:12:42.679Z,25.54
2022-08-24T19:15:29.150Z,25.47
2022-08-24T19:18:01.383Z,25.44
2022-08-24T19:20:28.236Z,25.36
2022-08-24T19:23:05.056Z,25.31
2022-08-24T19:25:32.089Z,25.26
2022-08-24T19:27:58.711Z,25.20
2022-08-24T19:30:27.968Z,25.16
2022-08-24T19:32:58.491Z,25.15
2022-08-24T19:35:25.097Z,25.12
2022-08-24T19:37:51.958Z,25.08
2022-08-24T19:40:20.938Z,25.03
2022-08-24T19:42:50.991Z,24.95
2022-08-24T19:45:41.029Z,24.92
2022-08-24T19:48:08.009Z,24.83
2022-08-24T19:50:36.030Z,24.75
2022-08-24T19:53:04.449Z,24.71
2022-08-24T19:55:31.626Z,24.67
2022-08-24T19:58:04.764Z,24.63
2022-08-24T20:00:48.136Z,24.59
2022-08-24T20:03:17.067Z,24.49
2022-08-24T20:05:43.583Z,24.46
2022-08-24T20:08:10.988Z,24.44
2022-08-24T20:10:38.693Z,24.41
2022-08-24T20:13:05.638Z,24.38
2022-08-24T20:15:33.025Z,24.33
2022-08-24T20:18:00.225Z,24.29
2022-08-24T20:20:28.275Z,24.26
2022-08-24T20:22:55.014Z,24.25
2022-08-24T20:25:21.940Z,24.21
2022-08-24T20:27:58.094Z,24.18
2022-08-24T20:30:36.698Z,24.15
2022-08-24T20:33:03.495Z,24.10
2022-08-24T20:35:31.222Z,24.07
2022-08-24T20:37:58.020Z,24.06
2022-08-24T20:40:25.922Z,24.04
2022-08-24T20:42:52.548Z,23.98
2022-08-24T20:45:19.122Z,23.97
2022-08-24T20:47:52.009Z,23.93
2022-08-24T20:50:23.488Z,23.89
2022-08-24T20:52:51.667Z,23.86
2022-08-24T20:55:18.729Z,23.86
2022-08-24T20:57:51.051Z,23.84
2022-08-24T21:00:20.057Z,23.82
2022-08-24T21:02:46.996Z,23.80
2022-08-24T21:05:14.064Z,23.77
2022-08-24T21:07:47.689Z,23.73
2022-08-24T21:10:14.382Z,23.69
2022-08-24T21:12:41.111Z,23.67
2022-08-24T21:15:11.166Z,23.62
2022-08-24T21:17:39.811Z,23.64
2022-08-24T21:20:07.849Z,23.62
2022-08-24T21:22:36.868Z,23.58
2022-08-24T21:25:08.453Z,23.58
2022-08-24T21:27:38.452Z,23.60
2022-08-24T21:30:14.820Z,23.60
2022-08-24T21:32:59.984Z,23.55
2022-08-24T21:35:27.423Z,23.51
2022-08-24T21:37:53.996Z,23.52
2022-08-24T21:40:20.908Z,23.49
2022-08-24T21:42:47.545Z,23.44
2022-08-24T21:45:14.076Z,23.41
2022-08-24T21:47:40.543Z,23.40
2022-08-24T21:50:07.868Z,23.35
2022-08-24T21:52:34.375Z,23.34
2022-08-24T21:55:00.946Z,23.31
2022-08-24T21:57:29.972Z,23.27
2022-08-24T21:59:56.640Z,23.24
2022-08-24T22:02:23.236Z,23.23
2022-08-24T22:04:56.191Z,23.20
2022-08-24T22:07:24.634Z,23.15
2022-08-24T22:09:51.347Z,23.13
2022-08-24T22:12:18.479Z,23.09
2022-08-24T22:14:44.947Z,23.05
2022-08-24T22:17:11.647Z,23.03
2022-08-24T22:19:38.192Z,23.01
2022-08-24T22:22:05.232Z,22.98
2022-08-24T22:24:31.887Z,22.94
2022-08-24T22:26:58.457Z,22.90
2022-08-24T22:29:24.966Z,22.89
2022-08-24T22:31:51.469Z,22.85
2022-08-24T22:34:20.732Z,22.84
2022-08-24T22:36:48.644Z,22.76
2022-08-24T22:39:15.210Z,22.71
2022-08-24T22:41:42.261Z,22.70
2022-08-24T22:44:21.710Z,22.68
2022-08-24T22:46:59.904Z,22.63
2022-08-24T22:49:32.536Z,22.61
2022-08-24T22:51:59.627Z,22.58
2022-08-24T22:54:27.175Z,22.55
2022-08-24T22:56:56.704Z,22.52
2022-08-24T22:59:26.989Z,22.49
2022-08-24T23:01:55.676Z,22.44
2022-08-24T23:04:29.645Z,22.40
2022-08-24T23:06:56.168Z,22.41
2022-08-24T23:09:23.407Z,22.41
2022-08-24T23:11:52.238Z,22.38
2022-08-24T23:14:19.855Z,22.36
2022-08-24T23:16:49.744Z,22.37
2022-08-24T23:19:37.962Z,22.33
2022-08-24T23:22:06.152Z,22.29
2022-08-24T23:24:33.574Z,22.27
2022-08-24T23:27:01.845Z,22.24
2022-08-24T23:29:28.903Z,22.21
2022-08-24T23:31:55.425Z,22.20
2022-08-24T23:34:22.693Z,22.17
2022-08-24T23:36:50.123Z,22.13
2022-08-24T23:39:17.653Z,22.11
2022-08-24T23:41:46.156Z,22.05
2022-08-24T23:44:21.840Z,22.02
2022-08-24T23:46:49.131Z,21.99
2022-08-24T23:49:18.243Z,21.97
2022-08-24T23:51:44.752Z,21.90
2022-08-24T23:54:11.467Z,21.88
2022-08-24T23:56:40.987Z,21.85
2022-08-24T23:59:15.481Z,21.83
